sensor_id;sensor_type;location;lat;lon;timestamp;temperature;humidity
16995;DHT22;8614;48.522;9.206;2023-02-15T03:02:44;-1.30;99.90
16995;DHT22;8614;48.522;9.206;2023-02-15T03:05:16;-1.40;99.90
16995;DHT22;8614;48.522;9.206;2023-02-15T03:07:47;-1.50;99.90
16995;DHT22;8614;48.522;9.206;2023-02-15T03:10:16;-1.50;99.90
16995;DHT22;8614;48.522;9.206;2023-02-15T03:12:44;-1.50;99.90
16995;DHT22;8614;48.522;9.206;2023-02-15T03:15:16;-1.60;99.90
16995;DHT22;8614;48.522;9.206;2023-02-15T03:17:48;-1.60;99.90
16995;DHT22;8614;48.522;9.206;2023-02-15T03:20:21;-1.60;99.90
16995;DHT22;8614;48.522;9.206;2023-02-15T03:22:54;-1.50;99.90
16995;DHT22;8614;48.522;9.206;2023-02-15T03:25:24;-1.60;99.90
16995;DHT22;8614;48.522;9.206;2023-02-15T03:27:55;-1.50;99.90
16995;DHT22;8614;48.522;9.206;2023-02-15T03:30:26;-1.60;99.90
16995;DHT22;8614;48.522;9.206;2023-02-15T03:32:56;-1.50;99.90
16995;DHT22;8614;48.522;9.206;2023-02-15T03:35:26;-1.60;99.90
16995;DHT22;8614;48.522;9.206;2023-02-15T03:37:59;-1.60;99.90
16995;DHT22;8614;48.522;9.206;2023-02-15T03:40:30;-1.50;99.90
16995;DHT22;8614;48.522;9.206;2023-02-15T03:43:18;-1.40;99.90
16995;DHT22;8614;48.522;9.206;2023-02-15T03:45:50;-1.50;99.90
16995;DHT22;8614;48.522;9.206;2023-02-15T03:48:26;-1.50;99.90
16995;DHT22;8614;48.522;9.206;2023-02-15T03:50:56;-1.50;99.90
16995;DHT22;8614;48.522;9.206;2023-02-15T03:53:42;-1.50;99.90
16995;DHT22;8614;48.522;9.206;2023-02-15T03:56:09;-1.50;99.90
16995;DHT22;8614;48.522;9.206;2023-02-15T03:58:36;-1.50;99.90
16995;DHT22;8614;48.522;9.206;2023-02-15T04:01:27;-1.50;99.90
16995;DHT22;8614;48.522;9.206;2023-02-15T04:04:26;-1.40;99.90
16995;DHT22;8614;48.522;9.206;2023-02-15T04:06:54;-1.40;99.90
16995;DHT22;8614;48.522;9.206;2023-02-15T04:09:21;-1.40;99.90
16995;DHT22;8614;48.522;9.206;2023-02-15T04:12:06;-1.40;99.90
16995;DHT22;8614;48.522;9.206;2023-02-15T04:14:33;-1.50;99.90
16995;DHT22;8614;48.522;9.206;2023-02-15T04:17:18;-1.50;99.90
16995;DHT22;8614;48.522;9.206;2023-02-15T04:19:46;-1.50;99.90
16995;DHT22;8614;48.522;9.206;2023-02-15T04:22:30;-1.50;99.90
16995;DHT22;8614;48.522;9.206;2023-02-15T04:25:14;-1.60;99.90
16995;DHT22;8614;48.522;9.206;2023-02-15T04:27:43;-1.70;99.90
16995;DHT22;8614;48.522;9.206;2023-02-15T04:30:12;-1.70;99.90
16995;DHT22;8614;48.522;9.206;2023-02-15T04:32:39;-1.80;99.90
16995;DHT22;8614;48.522;9.206;2023-02-15T04:35:08;-1.80;99.90
16995;DHT22;8614;48.522;9.206;2023-02-15T04:37:37;-1.90;99.90
16995;DHT22;8614;48.522;9.206;2023-02-15T04:40:06;-1.90;99.90
16995;DHT22;8614;48.522;9.206;2023-02-15T04:42:36;-2.00;99.90
16995;DHT22;8614;48.522;9.206;2023-02-15T04:45:03;-2.00;99.90
16995;DHT22;8614;48.522;9.206;2023-02-15T04:47:30;-1.90;99.90
16995;DHT22;8614;48.522;9.206;2023-02-15T04:49:57;-1.90;99.90
16995;DHT22;8614;48.522;9.206;2023-02-15T04:52:25;-1.90;99.90
16995;DHT22;8614;48.522;9.206;2023-02-15T04:54:52;-1.90;99.90
16995;DHT22;8614;48.522;9.206;2023-02-15T04:57:19;-1.90;99.90
16995;DHT22;8614;48.522;9.206;2023-02-15T04:59:46;-1.80;99.90
16995;DHT22;8614;48.522;9.206;2023-02-15T05:02:13;-1.80;99.90
16995;DHT22;8614;48.522;9.206;2023-02-15T05:04:39;-1.80;99.90
16995;DHT22;8614;48.522;9.206;2023-02-15T05:07:06;-1.90;99.90
16995;DHT22;8614;48.522;9.206;2023-02-15T05:09:34;-1.90;99.90
16995;DHT22;8614;48.522;9.206;2023-02-15T05:12:01;-1.90;99.90
16995;DHT22;8614;48.522;9.206;2023-02-15T05:14:28;-1.90;99.90
16995;DHT22;8614;48.522;9.206;2023-02-15T05:16:55;-2.00;99.90
16995;DHT22;8614;48.522;9.206;2023-02-15T05:19:22;-2.00;99.90
16995;DHT22;8614;48.522;9.206;2023-02-15T05:21:50;-2.10;99.90
16995;DHT22;8614;48.522;9.206;2023-02-15T05:24:16;-2.10;99.90
16995;DHT22;8614;48.522;9.206;2023-02-15T05:27:02;-2.10;99.90
16995;DHT22;8614;48.522;9.206;2023-02-15T05:29:43;-2.00;99.90
16995;DHT22;8614;48.522;9.206;2023-02-15T05:32:12;-2.00;99.90
16995;DHT22;8614;48.522;9.206;2023-02-15T05:34:39;-1.90;99.90
16995;DHT22;8614;48.522;9.206;2023-02-15T05:37:06;-1.90;99.90
16995;DHT22;8614;48.522;9.206;2023-02-15T05:39:34;-1.90;99.90
16995;DHT22;8614;48.522;9.206;2023-02-15T05:42:02;-2.00;99.90
16995;DHT22;8614;48.522;9.206;2023-02-15T05:44:29;-2.00;99.90
16995;DHT22;8614;48.522;9.206;2023-02-15T05:46:56;-2.00;99.90
16995;DHT22;8614;48.522;9.206;2023-02-15T05:49:23;-2.10;99.90
16995;DHT22;8614;48.522;9.206;2023-02-15T05:51:50;-2.10;99.90
16995;DHT22;8614;48.522;9.206;2023-02-15T05:54:17;-2.10;99.90
16995;DHT22;8614;48.522;9.206;2023-02-15T05:56:43;-2.10;99.90
16995;DHT22;8614;48.522;9.206;2023-02-15T05:59:11;-2.10;99.90
16995;DHT22;8614;48.522;9.206;2023-02-15T06:01:38;-2.10;99.90
16995;DHT22;8614;48.522;9.206;2023-02-15T06:04:05;-2.10;99.90
16995;DHT22;8614;48.522;9.206;2023-02-15T06:06:32;-2.00;99.90
16995;DHT22;8614;48.522;9.206;2023-02-15T06:09:00;-2.00;99.90
16995;DHT22;8614;48.522;9.206;2023-02-15T06:11:26;-2.00;99.90
16995;DHT22;8614;48.522;9.206;2023-02-15T06:13:53;-1.90;99.90
16995;DHT22;8614;48.522;9.206;2023-02-15T06:16:21;-2.00;99.90
16995;DHT22;8614;48.522;9.206;2023-02-15T06:18:48;-1.90;99.90
16995;DHT22;8614;48.522;9.206;2023-02-15T06:21:16;-1.90;99.90
16995;DHT22;8614;48.522;9.206;2023-02-15T06:23:43;-1.90;99.90
16995;DHT22;8614;48.522;9.206;2023-02-15T06:26:10;-1.80;99.90
16995;DHT22;8614;48.522;9.206;2023-02-15T06:28:36;-1.80;99.90
16995;DHT22;8614;48.522;9.206;2023-02-15T06:31:03;-1.80;99.90
16995;DHT22;8614;48.522;9.206;2023-02-15T06:33:32;-1.80;99.90
16995;DHT22;8614;48.522;9.206;2023-02-15T06:35:59;-1.80;99.90
16995;DHT22;8614;48.522;9.206;2023-02-15T06:38:27;-1.80;99.90
16995;DHT22;8614;48.522;9.206;2023-02-15T06:40:54;-1.70;99.90
16995;DHT22;8614;48.522;9.206;2023-02-15T06:43:21;-1.70;99.90
16995;DHT22;8614;48.522;9.206;2023-02-15T06:45:47;-1.70;99.90
16995;DHT22;8614;48.522;9.206;2023-02-15T06:48:15;-1.70;99.90
16995;DHT22;8614;48.522;9.206;2023-02-15T06:50:43;-1.70;99.90
16995;DHT22;8614;48.522;9.206;2023-02-15T06:53:09;-1.70;99.90
16995;DHT22;8614;48.522;9.206;2023-02-15T06:55:36;-1.60;99.90
16995;DHT22;8614;48.522;9.206;2023-02-15T06:58:03;-1.60;99.90
16995;DHT22;8614;48.522;9.206;2023-02-15T07:00:30;-1.60;99.90
16995;DHT22;8614;48.522;9.206;2023-02-15T07:02:58;-1.70;99.90
16995;DHT22;8614;48.522;9.206;2023-02-15T07:05:26;-1.60;99.90
16995;DHT22;8614;48.522;9.206;2023-02-15T07:07:57;-1.60;99.90
16995;DHT22;8614;48.522;9.206;2023-02-15T07:10:24;-1.60;99.90
16995;DHT22;8614;48.522;9.206;2023-02-15T07:12:51;-1.50;99.90
16995;DHT22;8614;48.522;9.206;2023-02-15T07:15:18;-1.50;99.90
16995;DHT22;8614;48.522;9.206;2023-02-15T07:17:47;-1.40;99.90
16995;DHT22;8614;48.522;9.206;2023-02-15T07:20:16;-1.30;99.90
16995;DHT22;8614;48.522;9.206;2023-02-15T07:22:43;-1.20;99.90
16995;DHT22;8614;48.522;9.206;2023-02-15T07:25:12;-1.20;99.90
16995;DHT22;8614;48.522;9.206;2023-02-15T07:27:40;-1.00;99.90
16995;DHT22;8614;48.522;9.206;2023-02-15T07:30:08;-0.90;99.90
16995;DHT22;8614;48.522;9.206;2023-02-15T07:32:35;-0.70;99.90
16995;DHT22;8614;48.522;9.206;2023-02-15T07:35:22;-0.50;99.90
16995;DHT22;8614;48.522;9.206;2023-02-15T07:37:49;-0.40;99.90
16995;DHT22;8614;48.522;9.206;2023-02-15T07:40:17;-0.40;99.90
16995;DHT22;8614;48.522;9.206;2023-02-15T07:42:44;-0.20;99.90
16995;DHT22;8614;48.522;9.206;2023-02-15T07:45:11;-0.10;99.90
16995;DHT22;8614;48.522;9.206;2023-02-15T07:47:40;0.10;99.90
16995;DHT22;8614;48.522;9.206;2023-02-15T07:50:07;0.40;99.90
16995;DHT22;8614;48.522;9.206;2023-02-15T07:52:34;0.70;99.90
16995;DHT22;8614;48.522;9.206;2023-02-15T07:55:00;1.10;99.90
16995;DHT22;8614;48.522;9.206;2023-02-15T07:57:29;1.40;99.90
16995;DHT22;8614;48.522;9.206;2023-02-15T07:59:56;1.80;99.90
16995;DHT22;8614;48.522;9.206;2023-02-15T08:02:23;2.10;99.90
16995;DHT22;8614;48.522;9.206;2023-02-15T08:04:50;2.50;99.90
16995;DHT22;8614;48.522;9.206;2023-02-15T08:07:17;3.00;99.90
16995;DHT22;8614;48.522;9.206;2023-02-15T08:09:43;3.30;99.90
16995;DHT22;8614;48.522;9.206;2023-02-15T08:12:10;3.60;99.90
16995;DHT22;8614;48.522;9.206;2023-02-15T08:14:38;4.00;99.90
16995;DHT22;8614;48.522;9.206;2023-02-15T08:17:05;4.30;99.90
16995;DHT22;8614;48.522;9.206;2023-02-15T08:19:32;4.60;99.90
16995;DHT22;8614;48.522;9.206;2023-02-15T08:22:01;5.00;99.90
16995;DHT22;8614;48.522;9.206;2023-02-15T08:24:30;5.40;99.90
16995;DHT22;8614;48.522;9.206;2023-02-15T08:26:58;5.70;99.90
16995;DHT22;8614;48.522;9.206;2023-02-15T08:29:26;6.10;99.90
16995;DHT22;8614;48.522;9.206;2023-02-15T08:31:56;6.40;99.90
16995;DHT22;8614;48.522;9.206;2023-02-15T08:34:24;6.50;99.90
16995;DHT22;8614;48.522;9.206;2023-02-15T08:36:50;6.20;99.90
16995;DHT22;8614;48.522;9.206;2023-02-15T08:39:17;6.30;99.90
16995;DHT22;8614;48.522;9.206;2023-02-15T08:41:45;6.40;99.90
16995;DHT22;8614;48.522;9.206;2023-02-15T08:44:13;6.20;99.90
16995;DHT22;8614;48.522;9.206;2023-02-15T08:46:42;6.40;99.90
16995;DHT22;8614;48.522;9.206;2023-02-15T08:49:12;6.70;99.90
16995;DHT22;8614;48.522;9.206;2023-02-15T08:51:40;6.80;99.90
16995;DHT22;8614;48.522;9.206;2023-02-15T08:54:08;7.30;99.90
16995;DHT22;8614;48.522;9.206;2023-02-15T08:56:37;7.70;99.90
16995;DHT22;8614;48.522;9.206;2023-02-15T08:59:05;8.00;99.90
16995;DHT22;8614;48.522;9.206;2023-02-15T09:01:33;8.40;99.90
16995;DHT22;8614;48.522;9.206;2023-02-15T09:04:03;8.60;99.90
16995;DHT22;8614;48.522;9.206;2023-02-15T09:06:32;8.70;99.90
16995;DHT22;8614;48.522;9.206;2023-02-15T09:08:59;8.70;99.90
16995;DHT22;8614;48.522;9.206;2023-02-15T09:11:28;8.40;99.90
16995;DHT22;8614;48.522;9.206;2023-02-15T09:13:57;8.30;99.90
16995;DHT22;8614;48.522;9.206;2023-02-15T09:16:26;8.00;99.90
16995;DHT22;8614;48.522;9.206;2023-02-15T09:18:54;7.90;99.90
16995;DHT22;8614;48.522;9.206;2023-02-15T09:21:24;8.10;99.90
16995;DHT22;8614;48.522;9.206;2023-02-15T09:23:56;8.20;99.90
16995;DHT22;8614;48.522;9.206;2023-02-15T09:26:24;8.70;99.90
16995;DHT22;8614;48.522;9.206;2023-02-15T09:28:52;8.80;99.90
16995;DHT22;8614;48.522;9.206;2023-02-15T09:31:22;9.10;99.90
16995;DHT22;8614;48.522;9.206;2023-02-15T09:33:50;9.10;99.90
16995;DHT22;8614;48.522;9.206;2023-02-15T09:36:21;9.20;99.90
16995;DHT22;8614;48.522;9.206;2023-02-15T09:38:54;9.20;99.90
16995;DHT22;8614;48.522;9.206;2023-02-15T09:41:45;9.20;99.90
16995;DHT22;8614;48.522;9.206;2023-02-15T09:44:22;9.30;99.90
16995;DHT22;8614;48.522;9.206;2023-02-15T09:47:08;9.40;99.90
16995;DHT22;8614;48.522;9.206;2023-02-15T09:49:43;9.20;99.90
16995;DHT22;8614;48.522;9.206;2023-02-15T09:52:21;9.30;99.90
16995;DHT22;8614;48.522;9.206;2023-02-15T09:55:05;9.30;99.90
16995;DHT22;8614;48.522;9.206;2023-02-15T09:57:40;9.20;99.90
16995;DHT22;8614;48.522;9.206;2023-02-15T10:00:18;8.80;99.90
16995;DHT22;8614;48.522;9.206;2023-02-15T10:03:09;8.30;99.90
16995;DHT22;8614;48.522;9.206;2023-02-15T10:05:51;8.40;99.90
16995;DHT22;8614;48.522;9.206;2023-02-15T10:08:39;8.50;99.90
16995;DHT22;8614;48.522;9.206;2023-02-15T10:11:15;8.40;99.90
16995;DHT22;8614;48.522;9.206;2023-02-15T10:14:15;8.40;99.90
16995;DHT22;8614;48.522;9.206;2023-02-15T10:16:51;8.30;99.90
16995;DHT22;8614;48.522;9.206;2023-02-15T10:19:29;8.40;99.90
16995;DHT22;8614;48.522;9.206;2023-02-15T10:22:07;8.40;99.90
16995;DHT22;8614;48.522;9.206;2023-02-15T10:24:52;8.30;99.90
16995;DHT22;8614;48.522;9.206;2023-02-15T10:27:23;8.40;99.90
16995;DHT22;8614;48.522;9.206;2023-02-15T10:30:02;8.50;99.90
16995;DHT22;8614;48.522;9.206;2023-02-15T10:32:37;8.50;99.90
16995;DHT22;8614;48.522;9.206;2023-02-15T10:35:10;8.60;99.90
16995;DHT22;8614;48.522;9.206;2023-02-15T10:37:49;8.60;99.90
16995;DHT22;8614;48.522;9.206;2023-02-15T10:40:27;8.50;99.90
16995;DHT22;8614;48.522;9.206;2023-02-15T10:43:10;8.50;99.90
16995;DHT22;8614;48.522;9.206;2023-02-15T10:45:46;8.50;99.90
16995;DHT22;8614;48.522;9.206;2023-02-15T10:51:19;8.60;99.90
16995;DHT22;8614;48.522;9.206;2023-02-15T10:54:05;8.60;99.90
16995;DHT22;8614;48.522;9.206;2023-02-15T10:56:39;8.60;99.90
16995;DHT22;8614;48.522;9.206;2023-02-15T10:59:32;8.50;99.90
16995;DHT22;8614;48.522;9.206;2023-02-15T11:02:12;8.40;99.90
16995;DHT22;8614;48.522;9.206;2023-02-15T11:04:57;8.30;99.90
16995;DHT22;8614;48.522;9.206;2023-02-15T11:07:29;8.40;99.90
16995;DHT22;8614;48.522;9.206;2023-02-15T11:10:05;8.40;99.90
16995;DHT22;8614;48.522;9.206;2023-02-15T11:12:34;8.40;99.90
16995;DHT22;8614;48.522;9.206;2023-02-15T11:15:09;8.50;99.90
16995;DHT22;8614;48.522;9.206;2023-02-15T11:17:40;8.50;99.90
16995;DHT22;8614;48.522;9.206;2023-02-15T11:20:16;8.50;99.90
16995;DHT22;8614;48.522;9.206;2023-02-15T11:22:48;8.60;99.90
16995;DHT22;8614;48.522;9.206;2023-02-15T11:25:18;8.60;99.90
16995;DHT22;8614;48.522;9.206;2023-02-15T11:27:47;8.60;99.90
16995;DHT22;8614;48.522;9.206;2023-02-15T11:30:19;8.70;99.90
16995;DHT22;8614;48.522;9.206;2023-02-15T11:32:48;8.70;99.90
16995;DHT22;8614;48.522;9.206;2023-02-15T11:35:22;8.70;99.90
16995;DHT22;8614;48.522;9.206;2023-02-15T11:37:54;8.80;99.90
16995;DHT22;8614;48.522;9.206;2023-02-15T11:40:25;8.80;99.90
16995;DHT22;8614;48.522;9.206;2023-02-15T11:42:56;8.90;99.90
16995;DHT22;8614;48.522;9.206;2023-02-15T11:45:28;9.00;99.90
16995;DHT22;8614;48.522;9.206;2023-02-15T11:47:56;9.10;99.90
16995;DHT22;8614;48.522;9.206;2023-02-15T11:50:26;9.20;99.90
16995;DHT22;8614;48.522;9.206;2023-02-15T11:52:58;9.20;99.90
16995;DHT22;8614;48.522;9.206;2023-02-15T11:55:27;9.30;99.90
16995;DHT22;8614;48.522;9.206;2023-02-15T11:57:59;9.30;99.90
16995;DHT22;8614;48.522;9.206;2023-02-15T12:00:33;9.40;99.90
16995;DHT22;8614;48.522;9.206;2023-02-15T12:03:07;9.50;99.90
16995;DHT22;8614;48.522;9.206;2023-02-15T12:05:37;9.50;99.90
16995;DHT22;8614;48.522;9.206;2023-02-15T12:08:14;9.60;99.90
16995;DHT22;8614;48.522;9.206;2023-02-15T12:10:49;9.70;99.90
16995;DHT22;8614;48.522;9.206;2023-02-15T12:13:19;9.70;99.90
16995;DHT22;8614;48.522;9.206;2023-02-15T12:15:50;9.90;99.90
16995;DHT22;8614;48.522;9.206;2023-02-15T12:18:23;10.00;99.90
16995;DHT22;8614;48.522;9.206;2023-02-15T12:20:51;10.10;99.90
16995;DHT22;8614;48.522;9.206;2023-02-15T12:23:19;10.30;99.90
16995;DHT22;8614;48.522;9.206;2023-02-15T12:25:51;10.30;99.90
16995;DHT22;8614;48.522;9.206;2023-02-15T12:28:26;10.40;99.90
16995;DHT22;8614;48.522;9.206;2023-02-15T12:30:55;10.40;99.90
16995;DHT22;8614;48.522;9.206;2023-02-15T12:33:27;10.40;99.90
16995;DHT22;8614;48.522;9.206;2023-02-15T12:35:57;10.50;99.90
16995;DHT22;8614;48.522;9.206;2023-02-15T12:38:26;10.50;99.90
16995;DHT22;8614;48.522;9.206;2023-02-15T12:40:58;10.60;99.90
16995;DHT22;8614;48.522;9.206;2023-02-15T12:43:27;10.60;99.90
16995;DHT22;8614;48.522;9.206;2023-02-15T12:46:14;10.60;99.90
16995;DHT22;8614;48.522;9.206;2023-02-15T12:48:45;10.70;99.90
16995;DHT22;8614;48.522;9.206;2023-02-15T12:51:15;10.80;99.90
16995;DHT22;8614;48.522;9.206;2023-02-15T12:53:42;10.90;99.90
16995;DHT22;8614;48.522;9.206;2023-02-15T12:56:10;11.00;99.90
16995;DHT22;8614;48.522;9.206;2023-02-15T12:58:38;11.00;99.90
16995;DHT22;8614;48.522;9.206;2023-02-15T13:01:15;11.10;99.90
16995;DHT22;8614;48.522;9.206;2023-02-15T13:03:56;11.20;99.90
16995;DHT22;8614;48.522;9.206;2023-02-15T13:06:24;11.30;99.90
16995;DHT22;8614;48.522;9.206;2023-02-15T13:08:53;11.30;99.90
16995;DHT22;8614;48.522;9.206;2023-02-15T13:11:25;11.40;99.90
16995;DHT22;8614;48.522;9.206;2023-02-15T13:13:54;11.50;99.90
16995;DHT22;8614;48.522;9.206;2023-02-15T13:16:29;11.40;99.90
16995;DHT22;8614;48.522;9.206;2023-02-15T13:18:57;11.50;99.90
16995;DHT22;8614;48.522;9.206;2023-02-15T13:21:26;11.50;99.90
16995;DHT22;8614;48.522;9.206;2023-02-15T13:23:57;11.50;99.90
16995;DHT22;8614;48.522;9.206;2023-02-15T13:26:30;11.60;99.90
16995;DHT22;8614;48.522;9.206;2023-02-15T13:29:03;11.60;99.90
16995;DHT22;8614;48.522;9.206;2023-02-15T13:31:35;11.60;99.90
16995;DHT22;8614;48.522;9.206;2023-02-15T13:34:09;11.70;99.90
16995;DHT22;8614;48.522;9.206;2023-02-15T13:36:43;11.70;99.90
16995;DHT22;8614;48.522;9.206;2023-02-15T13:39:20;11.70;99.90
16995;DHT22;8614;48.522;9.206;2023-02-15T13:41:56;11.80;99.90
16995;DHT22;8614;48.522;9.206;2023-02-15T13:44:57;11.80;99.90
16995;DHT22;8614;48.522;9.206;2023-02-15T13:47:34;11.80;99.90
16995;DHT22;8614;48.522;9.206;2023-02-15T13:50:19;11.80;99.90
16995;DHT22;8614;48.522;9.206;2023-02-15T13:52:52;11.80;99.90
16995;DHT22;8614;48.522;9.206;2023-02-15T13:55:37;11.80;99.90
16995;DHT22;8614;48.522;9.206;2023-02-15T14:01:09;11.80;99.90
16995;DHT22;8614;48.522;9.206;2023-02-15T14:04:02;11.80;99.90
16995;DHT22;8614;48.522;9.206;2023-02-15T14:06:54;11.80;99.90
16995;DHT22;8614;48.522;9.206;2023-02-15T14:09:35;11.90;99.90
16995;DHT22;8614;48.522;9.206;2023-02-15T14:12:21;11.90;99.90
16995;DHT22;8614;48.522;9.206;2023-02-15T14:15:13;12.00;99.90
16995;DHT22;8614;48.522;9.206;2023-02-15T14:17:54;12.00;99.90
16995;DHT22;8614;48.522;9.206;2023-02-15T14:20:29;12.00;99.90
16995;DHT22;8614;48.522;9.206;2023-02-15T14:23:03;12.00;99.90
16995;DHT22;8614;48.522;9.206;2023-02-15T14:25:39;12.00;99.90
16995;DHT22;8614;48.522;9.206;2023-02-15T14:28:11;12.00;99.90
16995;DHT22;8614;48.522;9.206;2023-02-15T14:30:42;12.00;99.90
16995;DHT22;8614;48.522;9.206;2023-02-15T14:33:25;12.00;99.90
16995;DHT22;8614;48.522;9.206;2023-02-15T14:35:58;11.90;99.90
16995;DHT22;8614;48.522;9.206;2023-02-15T14:38:36;11.90;99.90
16995;DHT22;8614;48.522;9.206;2023-02-15T14:41:10;11.90;99.90
16995;DHT22;8614;48.522;9.206;2023-02-15T14:43:47;11.90;99.90
16995;DHT22;8614;48.522;9.206;2023-02-15T14:46:23;11.90;99.90
16995;DHT22;8614;48.522;9.206;2023-02-15T14:48:53;11.90;99.90
16995;DHT22;8614;48.522;9.206;2023-02-15T14:52:03;11.90;99.90
16995;DHT22;8614;48.522;9.206;2023-02-15T14:54:55;11.90;99.90
16995;DHT22;8614;48.522;9.206;2023-02-15T14:57:25;11.90;99.90
16995;DHT22;8614;48.522;9.206;2023-02-15T14:59:54;11.90;99.90
16995;DHT22;8614;48.522;9.206;2023-02-15T15:02:25;11.90;99.90
16995;DHT22;8614;48.522;9.206;2023-02-15T15:04:59;11.90;99.90
16995;DHT22;8614;48.522;9.206;2023-02-15T15:07:37;11.80;99.90
16995;DHT22;8614;48.522;9.206;2023-02-15T15:10:23;11.80;99.90
16995;DHT22;8614;48.522;9.206;2023-02-15T15:12:54;11.80;99.90
16995;DHT22;8614;48.522;9.206;2023-02-15T15:15:33;11.80;99.90
16995;DHT22;8614;48.522;9.206;2023-02-15T15:18:02;11.80;99.90
16995;DHT22;8614;48.522;9.206;2023-02-15T15:20:44;11.70;99.90
16995;DHT22;8614;48.522;9.206;2023-02-15T15:23:40;11.70;99.90
16995;DHT22;8614;48.522;9.206;2023-02-15T15:26:27;11.70;99.90
16995;DHT22;8614;48.522;9.206;2023-02-15T15:29:00;11.70;99.90
16995;DHT22;8614;48.522;9.206;2023-02-15T15:31:41;11.70;99.90
16995;DHT22;8614;48.522;9.206;2023-02-15T15:34:24;11.70;99.90
16995;DHT22;8614;48.522;9.206;2023-02-15T15:46:28;11.40;99.90
16995;DHT22;8614;48.522;9.206;2023-02-15T15:49:01;11.30;99.90
16995;DHT22;8614;48.522;9.206;2023-02-15T15:51:31;11.10;99.90
16995;DHT22;8614;48.522;9.206;2023-02-15T15:53:59;11.00;99.90
16995;DHT22;8614;48.522;9.206;2023-02-15T15:56:31;11.00;99.90
16995;DHT22;8614;48.522;9.206;2023-02-15T15:59:02;10.90;99.90
16995;DHT22;8614;48.522;9.206;2023-02-15T16:01:34;10.80;99.90
16995;DHT22;8614;48.522;9.206;2023-02-15T16:04:01;10.70;99.90
16995;DHT22;8614;48.522;9.206;2023-02-15T16:06:31;10.60;99.90
16995;DHT22;8614;48.522;9.206;2023-02-15T16:09:09;10.50;99.90
16995;DHT22;8614;48.522;9.206;2023-02-15T16:11:37;10.40;99.90
16995;DHT22;8614;48.522;9.206;2023-02-15T16:14:11;10.30;99.90
16995;DHT22;8614;48.522;9.206;2023-02-15T16:16:39;10.20;99.90
16995;DHT22;8614;48.522;9.206;2023-02-15T16:19:16;10.20;99.90
16995;DHT22;8614;48.522;9.206;2023-02-15T16:21:47;10.10;99.90
16995;DHT22;8614;48.522;9.206;2023-02-15T16:24:55;9.90;99.90
16995;DHT22;8614;48.522;9.206;2023-02-15T16:27:34;9.80;99.90
16995;DHT22;8614;48.522;9.206;2023-02-15T16:30:20;9.70;99.90
16995;DHT22;8614;48.522;9.206;2023-02-15T16:32:48;9.60;99.90
16995;DHT22;8614;48.522;9.206;2023-02-15T16:35:17;9.50;99.90
16995;DHT22;8614;48.522;9.206;2023-02-15T16:37:44;9.30;99.90
16995;DHT22;8614;48.522;9.206;2023-02-15T16:40:35;9.20;99.90
16995;DHT22;8614;48.522;9.206;2023-02-15T16:43:06;9.10;99.90
16995;DHT22;8614;48.522;9.206;2023-02-15T16:45:38;9.00;99.90
16995;DHT22;8614;48.522;9.206;2023-02-15T16:48:10;9.00;99.90
16995;DHT22;8614;48.522;9.206;2023-02-15T16:50:39;8.90;99.90
16995;DHT22;8614;48.522;9.206;2023-02-15T16:53:15;8.70;99.90
16995;DHT22;8614;48.522;9.206;2023-02-15T16:55:43;8.60;99.90
16995;DHT22;8614;48.522;9.206;2023-02-15T16:58:15;8.50;99.90
16995;DHT22;8614;48.522;9.206;2023-02-15T17:00:44;8.30;99.90
16995;DHT22;8614;48.522;9.206;2023-02-15T17:03:22;8.20;99.90
16995;DHT22;8614;48.522;9.206;2023-02-15T17:05:51;8.10;99.90
16995;DHT22;8614;48.522;9.206;2023-02-15T17:08:25;8.00;99.90
16995;DHT22;8614;48.522;9.206;2023-02-15T17:11:11;7.90;99.90
16995;DHT22;8614;48.522;9.206;2023-02-15T17:13:39;7.80;99.90
16995;DHT22;8614;48.522;9.206;2023-02-15T17:16:30;7.70;99.90
16995;DHT22;8614;48.522;9.206;2023-02-15T17:18:59;7.60;99.90
16995;DHT22;8614;48.522;9.206;2023-02-15T17:21:31;7.50;99.90
16995;DHT22;8614;48.522;9.206;2023-02-15T17:24:00;7.30;99.90
16995;DHT22;8614;48.522;9.206;2023-02-15T17:26:31;7.20;99.90
16995;DHT22;8614;48.522;9.206;2023-02-15T17:29:11;7.00;99.90
16995;DHT22;8614;48.522;9.206;2023-02-15T17:31:51;6.90;99.90
16995;DHT22;8614;48.522;9.206;2023-02-15T17:34:56;6.70;99.90
16995;DHT22;8614;48.522;9.206;2023-02-15T17:37:44;6.60;99.90
16995;DHT22;8614;48.522;9.206;2023-02-15T17:40:22;6.50;99.90
16995;DHT22;8614;48.522;9.206;2023-02-15T17:43:10;6.40;99.90
16995;DHT22;8614;48.522;9.206;2023-02-15T17:46:02;6.30;99.90
16995;DHT22;8614;48.522;9.206;2023-02-15T17:48:47;6.20;99.90
16995;DHT22;8614;48.522;9.206;2023-02-15T17:51:14;6.10;99.90
16995;DHT22;8614;48.522;9.206;2023-02-15T17:54:12;6.00;99.90
16995;DHT22;8614;48.522;9.206;2023-02-15T17:57:12;5.90;99.90
16995;DHT22;8614;48.522;9.206;2023-02-15T18:00:05;5.80;99.90
16995;DHT22;8614;48.522;9.206;2023-02-15T18:03:14;5.70;99.90
16995;DHT22;8614;48.522;9.206;2023-02-15T18:39:24;4.70;99.90
16995;DHT22;8614;48.522;9.206;2023-02-15T18:41:52;4.60;99.90
16995;DHT22;8614;48.522;9.206;2023-02-15T18:44:19;4.50;99.90
16995;DHT22;8614;48.522;9.206;2023-02-15T18:46:56;4.40;99.90
16995;DHT22;8614;48.522;9.206;2023-02-15T18:49:28;4.30;99.90
16995;DHT22;8614;48.522;9.206;2023-02-15T18:52:35;4.20;99.90
16995;DHT22;8614;48.522;9.206;2023-02-15T18:59:03;4.10;99.90
16995;DHT22;8614;48.522;9.206;2023-02-15T19:02:03;4.00;99.90
16995;DHT22;8614;48.522;9.206;2023-02-15T19:08:36;4.00;99.90
16995;DHT22;8614;48.522;9.206;2023-02-15T19:11:35;3.90;99.90
16995;DHT22;8614;48.522;9.206;2023-02-15T19:14:26;3.90;99.90
16995;DHT22;8614;48.522;9.206;2023-02-15T19:17:23;3.80;99.90
16995;DHT22;8614;48.522;9.206;2023-02-15T19:19:56;3.80;99.90
16995;DHT22;8614;48.522;9.206;2023-02-15T19:22:28;3.70;99.90
16995;DHT22;8614;48.522;9.206;2023-02-15T19:24:59;3.70;99.90
16995;DHT22;8614;48.522;9.206;2023-02-15T19:27:28;3.60;99.90
16995;DHT22;8614;48.522;9.206;2023-02-15T19:29:58;3.60;99.90
16995;DHT22;8614;48.522;9.206;2023-02-15T19:32:25;3.50;99.90
16995;DHT22;8614;48.522;9.206;2023-02-15T19:34:52;3.50;99.90
16995;DHT22;8614;48.522;9.206;2023-02-15T19:37:23;3.40;99.90
16995;DHT22;8614;48.522;9.206;2023-02-15T19:39:51;3.40;99.90
16995;DHT22;8614;48.522;9.206;2023-02-15T19:42:21;3.40;99.90
16995;DHT22;8614;48.522;9.206;2023-02-15T19:44:48;3.40;99.90
16995;DHT22;8614;48.522;9.206;2023-02-15T19:47:16;3.40;99.90
16995;DHT22;8614;48.522;9.206;2023-02-15T19:49:44;3.40;99.90
16995;DHT22;8614;48.522;9.206;2023-02-15T19:52:15;3.40;99.90
16995;DHT22;8614;48.522;9.206;2023-02-15T19:54:44;3.50;99.90
16995;DHT22;8614;48.522;9.206;2023-02-15T19:57:11;3.50;99.90
16995;DHT22;8614;48.522;9.206;2023-02-15T19:59:39;3.50;99.90
16995;DHT22;8614;48.522;9.206;2023-02-15T20:02:06;3.40;99.90
16995;DHT22;8614;48.522;9.206;2023-02-15T20:04:38;3.40;99.90
16995;DHT22;8614;48.522;9.206;2023-02-15T20:07:08;3.40;99.90
16995;DHT22;8614;48.522;9.206;2023-02-15T20:09:39;3.30;99.90
16995;DHT22;8614;48.522;9.206;2023-02-15T20:12:18;3.20;99.90
16995;DHT22;8614;48.522;9.206;2023-02-15T20:14:46;3.20;99.90
16995;DHT22;8614;48.522;9.206;2023-02-15T20:17:12;3.30;99.90
16995;DHT22;8614;48.522;9.206;2023-02-15T20:19:40;3.20;99.90
16995;DHT22;8614;48.522;9.206;2023-02-15T20:22:15;3.20;99.90
16995;DHT22;8614;48.522;9.206;2023-02-15T20:24:43;3.20;99.90
16995;DHT22;8614;48.522;9.206;2023-02-15T20:27:14;3.10;99.90
16995;DHT22;8614;48.522;9.206;2023-02-15T20:29:41;3.10;99.90